sensor_id;sensor_type;location;lat;lon;timestamp;temperature;humidity
61841;DHT22;47773;53.174;6.614;2022-10-16T00:00:57;13.10;99.90
61841;DHT22;47773;53.174;6.614;2022-10-16T00:03:22;13.10;99.90
61841;DHT22;47773;53.174;6.614;2022-10-16T00:05:48;13.10;99.90
61841;DHT22;47773;53.174;6.614;2022-10-16T00:08:14;13.10;99.90
61841;DHT22;47773;53.174;6.614;2022-10-16T00:10:40;13.10;99.90
61841;DHT22;47773;53.174;6.614;2022-10-16T00:13:12;13.10;99.90
61841;DHT22;47773;53.174;6.614;2022-10-16T00:15:37;13.10;99.90
61841;DHT22;47773;53.174;6.614;2022-10-16T00:18:04;13.00;99.90
61841;DHT22;47773;53.174;6.614;2022-10-16T00:20:34;13.00;99.90
61841;DHT22;47773;53.174;6.614;2022-10-16T00:22:59;13.00;99.90
61841;DHT22;47773;53.174;6.614;2022-10-16T00:25:25;13.00;99.90
61841;DHT22;47773;53.174;6.614;2022-10-16T00:27:51;13.00;99.90
61841;DHT22;47773;53.174;6.614;2022-10-16T00:30:16;13.00;99.90
61841;DHT22;47773;53.174;6.614;2022-10-16T00:32:42;13.00;99.90
61841;DHT22;47773;53.174;6.614;2022-10-16T00:35:08;13.00;99.90
61841;DHT22;47773;53.174;6.614;2022-10-16T00:37:33;13.00;99.90
61841;DHT22;47773;53.174;6.614;2022-10-16T00:39:59;13.00;99.90
61841;DHT22;47773;53.174;6.614;2022-10-16T00:42:25;13.00;99.90
61841;DHT22;47773;53.174;6.614;2022-10-16T00:44:56;13.00;99.90
61841;DHT22;47773;53.174;6.614;2022-10-16T00:47:29;13.00;99.90
61841;DHT22;47773;53.174;6.614;2022-10-16T00:50:05;13.00;99.90
61841;DHT22;47773;53.174;6.614;2022-10-16T00:52:32;13.00;99.90
61841;DHT22;47773;53.174;6.614;2022-10-16T00:54:58;13.00;99.90
61841;DHT22;47773;53.174;6.614;2022-10-16T00:57:25;13.00;99.90
61841;DHT22;47773;53.174;6.614;2022-10-16T00:59:51;13.00;99.90
61841;DHT22;47773;53.174;6.614;2022-10-16T01:02:17;13.00;99.90
61841;DHT22;47773;53.174;6.614;2022-10-16T01:04:47;13.00;99.90
61841;DHT22;47773;53.174;6.614;2022-10-16T01:12:59;13.00;99.90
61841;DHT22;47773;53.174;6.614;2022-10-16T01:21:05;13.00;99.90
61841;DHT22;47773;53.174;6.614;2022-10-16T01:29:29;13.00;99.90
61841;DHT22;47773;53.174;6.614;2022-10-16T01:32:07;13.00;99.90
61841;DHT22;47773;53.174;6.614;2022-10-16T01:34:45;13.00;99.90
61841;DHT22;47773;53.174;6.614;2022-10-16T01:38:10;13.00;99.90
61841;DHT22;47773;53.174;6.614;2022-10-16T01:40:18;13.10;99.90
61841;DHT22;47773;53.174;6.614;2022-10-16T01:42:50;13.00;99.90
61841;DHT22;47773;53.174;6.614;2022-10-16T01:45:19;13.10;99.90
61841;DHT22;47773;53.174;6.614;2022-10-16T01:47:46;13.10;99.90
61841;DHT22;47773;53.174;6.614;2022-10-16T01:50:15;13.10;99.90
61841;DHT22;47773;53.174;6.614;2022-10-16T01:52:44;13.10;99.90
61841;DHT22;47773;53.174;6.614;2022-10-16T01:55:15;13.10;99.90
61841;DHT22;47773;53.174;6.614;2022-10-16T01:57:44;13.10;99.90
61841;DHT22;47773;53.174;6.614;2022-10-16T02:00:13;13.10;99.90
61841;DHT22;47773;53.174;6.614;2022-10-16T02:02:43;13.10;99.90
61841;DHT22;47773;53.174;6.614;2022-10-16T02:07:49;13.20;99.90
61841;DHT22;47773;53.174;6.614;2022-10-16T02:10:14;13.20;99.90
61841;DHT22;47773;53.174;6.614;2022-10-16T02:12:57;13.20;99.90
61841;DHT22;47773;53.174;6.614;2022-10-16T02:15:24;13.20;99.90
61841;DHT22;47773;53.174;6.614;2022-10-16T02:17:49;13.20;99.90
61841;DHT22;47773;53.174;6.614;2022-10-16T02:20:15;13.20;99.90
61841;DHT22;47773;53.174;6.614;2022-10-16T02:22:45;13.20;99.90
61841;DHT22;47773;53.174;6.614;2022-10-16T02:27:58;13.20;99.90
61841;DHT22;47773;53.174;6.614;2022-10-16T02:30:39;13.20;99.90
61841;DHT22;47773;53.174;6.614;2022-10-16T02:33:09;13.20;99.90
61841;DHT22;47773;53.174;6.614;2022-10-16T02:35:37;13.20;99.90
61841;DHT22;47773;53.174;6.614;2022-10-16T02:38:04;13.20;99.90
61841;DHT22;47773;53.174;6.614;2022-10-16T02:40:31;13.30;99.90
61841;DHT22;47773;53.174;6.614;2022-10-16T02:42:57;13.30;99.90
61841;DHT22;47773;53.174;6.614;2022-10-16T02:45:23;13.30;99.90
61841;DHT22;47773;53.174;6.614;2022-10-16T02:47:49;13.30;99.90
61841;DHT22;47773;53.174;6.614;2022-10-16T02:50:15;13.30;99.90
61841;DHT22;47773;53.174;6.614;2022-10-16T02:52:41;13.30;99.90
61841;DHT22;47773;53.174;6.614;2022-10-16T02:55:06;13.30;99.90
61841;DHT22;47773;53.174;6.614;2022-10-16T02:57:32;13.30;99.90
61841;DHT22;47773;53.174;6.614;2022-10-16T02:59:58;13.30;99.90
61841;DHT22;47773;53.174;6.614;2022-10-16T03:02:24;13.30;99.90
61841;DHT22;47773;53.174;6.614;2022-10-16T03:04:49;13.30;99.90
61841;DHT22;47773;53.174;6.614;2022-10-16T03:07:15;13.40;99.90
61841;DHT22;47773;53.174;6.614;2022-10-16T03:09:41;13.40;99.90
61841;DHT22;47773;53.174;6.614;2022-10-16T03:12:06;13.40;99.90
61841;DHT22;47773;53.174;6.614;2022-10-16T03:14:33;13.40;99.90
61841;DHT22;47773;53.174;6.614;2022-10-16T03:16:58;13.40;99.90
61841;DHT22;47773;53.174;6.614;2022-10-16T03:19:24;13.50;99.90
61841;DHT22;47773;53.174;6.614;2022-10-16T03:21:50;13.50;99.90
61841;DHT22;47773;53.174;6.614;2022-10-16T03:24:15;13.40;99.90
61841;DHT22;47773;53.174;6.614;2022-10-16T03:26:41;13.50;99.90
61841;DHT22;47773;53.174;6.614;2022-10-16T03:29:07;13.40;99.90
61841;DHT22;47773;53.174;6.614;2022-10-16T03:31:33;13.40;99.90
61841;DHT22;47773;53.174;6.614;2022-10-16T03:33:58;13.40;99.90
61841;DHT22;47773;53.174;6.614;2022-10-16T03:36:24;13.40;99.90
61841;DHT22;47773;53.174;6.614;2022-10-16T03:38:50;13.30;99.90
61841;DHT22;47773;53.174;6.614;2022-10-16T03:41:15;13.30;99.90
61841;DHT22;47773;53.174;6.614;2022-10-16T03:43:41;13.30;99.90
61841;DHT22;47773;53.174;6.614;2022-10-16T03:46:07;13.30;99.90
61841;DHT22;47773;53.174;6.614;2022-10-16T03:48:32;13.30;99.90
61841;DHT22;47773;53.174;6.614;2022-10-16T03:50:58;13.30;99.90
61841;DHT22;47773;53.174;6.614;2022-10-16T03:53:24;13.30;99.90
61841;DHT22;47773;53.174;6.614;2022-10-16T03:55:50;13.30;99.90
61841;DHT22;47773;53.174;6.614;2022-10-16T03:58:16;13.30;99.90
61841;DHT22;47773;53.174;6.614;2022-10-16T04:00:43;13.30;99.90
61841;DHT22;47773;53.174;6.614;2022-10-16T04:03:09;13.30;99.90
61841;DHT22;47773;53.174;6.614;2022-10-16T04:05:35;13.30;99.90
61841;DHT22;47773;53.174;6.614;2022-10-16T04:08:00;13.30;99.90
61841;DHT22;47773;53.174;6.614;2022-10-16T04:10:26;13.30;99.90
61841;DHT22;47773;53.174;6.614;2022-10-16T04:12:51;13.30;99.90
61841;DHT22;47773;53.174;6.614;2022-10-16T04:15:20;13.20;99.90
61841;DHT22;47773;53.174;6.614;2022-10-16T04:17:45;13.20;99.90
61841;DHT22;47773;53.174;6.614;2022-10-16T04:20:11;13.20;99.90
61841;DHT22;47773;53.174;6.614;2022-10-16T04:22:36;13.20;99.90
61841;DHT22;47773;53.174;6.614;2022-10-16T04:25:02;13.20;99.90
61841;DHT22;47773;53.174;6.614;2022-10-16T04:27:28;13.20;99.90
61841;DHT22;47773;53.174;6.614;2022-10-16T04:29:53;13.20;99.90
61841;DHT22;47773;53.174;6.614;2022-10-16T04:32:19;13.20;99.90
61841;DHT22;47773;53.174;6.614;2022-10-16T04:34:45;13.10;99.90
61841;DHT22;47773;53.174;6.614;2022-10-16T04:37:10;13.20;99.90
61841;DHT22;47773;53.174;6.614;2022-10-16T04:39:36;13.10;99.90
61841;DHT22;47773;53.174;6.614;2022-10-16T04:42:01;13.20;99.90
61841;DHT22;47773;53.174;6.614;2022-10-16T04:44:28;13.20;99.90
61841;DHT22;47773;53.174;6.614;2022-10-16T04:46:53;13.10;99.90
61841;DHT22;47773;53.174;6.614;2022-10-16T04:49:19;13.20;99.90
61841;DHT22;47773;53.174;6.614;2022-10-16T04:51:44;13.20;99.90
61841;DHT22;47773;53.174;6.614;2022-10-16T04:54:10;13.20;99.90
61841;DHT22;47773;53.174;6.614;2022-10-16T04:56:36;13.20;99.90
61841;DHT22;47773;53.174;6.614;2022-10-16T04:59:09;13.20;99.90
61841;DHT22;47773;53.174;6.614;2022-10-16T05:01:34;13.30;99.90
61841;DHT22;47773;53.174;6.614;2022-10-16T05:04:00;13.30;99.90
61841;DHT22;47773;53.174;6.614;2022-10-16T05:06:26;13.30;99.90
61841;DHT22;47773;53.174;6.614;2022-10-16T05:08:52;13.30;99.90
61841;DHT22;47773;53.174;6.614;2022-10-16T05:11:17;13.20;99.90
61841;DHT22;47773;53.174;6.614;2022-10-16T05:13:43;13.20;99.90
61841;DHT22;47773;53.174;6.614;2022-10-16T05:16:09;13.20;99.90
61841;DHT22;47773;53.174;6.614;2022-10-16T05:18:34;13.20;99.90
61841;DHT22;47773;53.174;6.614;2022-10-16T05:21:00;13.20;99.90
61841;DHT22;47773;53.174;6.614;2022-10-16T05:23:25;13.10;99.90
61841;DHT22;47773;53.174;6.614;2022-10-16T05:25:55;13.10;99.90
61841;DHT22;47773;53.174;6.614;2022-10-16T05:28:24;13.10;99.90
61841;DHT22;47773;53.174;6.614;2022-10-16T05:30:50;13.10;99.90
61841;DHT22;47773;53.174;6.614;2022-10-16T05:33:15;13.10;99.90
61841;DHT22;47773;53.174;6.614;2022-10-16T05:35:41;13.10;99.90
61841;DHT22;47773;53.174;6.614;2022-10-16T05:38:07;13.10;99.90
61841;DHT22;47773;53.174;6.614;2022-10-16T05:40:32;13.10;99.90
61841;DHT22;47773;53.174;6.614;2022-10-16T05:42:58;13.10;99.90
61841;DHT22;47773;53.174;6.614;2022-10-16T05:45:24;13.10;99.90
61841;DHT22;47773;53.174;6.614;2022-10-16T05:47:49;13.10;99.90
61841;DHT22;47773;53.174;6.614;2022-10-16T05:50:15;13.10;99.90
61841;DHT22;47773;53.174;6.614;2022-10-16T05:52:41;13.10;99.90
61841;DHT22;47773;53.174;6.614;2022-10-16T05:55:07;13.10;99.90
61841;DHT22;47773;53.174;6.614;2022-10-16T05:57:32;13.10;99.90
61841;DHT22;47773;53.174;6.614;2022-10-16T05:59:58;13.10;99.90
61841;DHT22;47773;53.174;6.614;2022-10-16T06:02:23;13.10;99.90
61841;DHT22;47773;53.174;6.614;2022-10-16T06:04:51;13.10;99.90
61841;DHT22;47773;53.174;6.614;2022-10-16T06:07:17;13.10;99.90
61841;DHT22;47773;53.174;6.614;2022-10-16T06:09:42;13.10;99.90
61841;DHT22;47773;53.174;6.614;2022-10-16T06:12:08;13.10;99.90
61841;DHT22;47773;53.174;6.614;2022-10-16T06:14:33;13.10;99.90
61841;DHT22;47773;53.174;6.614;2022-10-16T06:16:59;13.10;99.90
61841;DHT22;47773;53.174;6.614;2022-10-16T06:19:25;13.10;99.90
61841;DHT22;47773;53.174;6.614;2022-10-16T06:21:50;13.10;99.90
61841;DHT22;47773;53.174;6.614;2022-10-16T06:24:16;13.10;99.90
61841;DHT22;47773;53.174;6.614;2022-10-16T06:26:42;13.10;99.90
61841;DHT22;47773;53.174;6.614;2022-10-16T06:29:08;13.10;99.90
61841;DHT22;47773;53.174;6.614;2022-10-16T06:31:33;13.20;99.90
61841;DHT22;47773;53.174;6.614;2022-10-16T06:34:00;13.20;99.90
61841;DHT22;47773;53.174;6.614;2022-10-16T06:36:26;13.20;99.90
61841;DHT22;47773;53.174;6.614;2022-10-16T06:38:52;13.30;99.90
61841;DHT22;47773;53.174;6.614;2022-10-16T06:41:20;13.30;99.90
61841;DHT22;47773;53.174;6.614;2022-10-16T06:43:47;13.30;99.90
61841;DHT22;47773;53.174;6.614;2022-10-16T06:46:15;13.30;99.90
61841;DHT22;47773;53.174;6.614;2022-10-16T06:48:41;13.30;99.90
61841;DHT22;47773;53.174;6.614;2022-10-16T06:51:10;13.40;99.90
61841;DHT22;47773;53.174;6.614;2022-10-16T06:53:38;13.40;99.90
61841;DHT22;47773;53.174;6.614;2022-10-16T06:56:08;13.40;99.90
61841;DHT22;47773;53.174;6.614;2022-10-16T06:58:34;13.50;99.90
61841;DHT22;47773;53.174;6.614;2022-10-16T07:01:00;13.50;99.90
61841;DHT22;47773;53.174;6.614;2022-10-16T07:03:25;13.50;99.90
61841;DHT22;47773;53.174;6.614;2022-10-16T07:05:51;13.60;99.90
61841;DHT22;47773;53.174;6.614;2022-10-16T07:08:17;13.60;99.90
61841;DHT22;47773;53.174;6.614;2022-10-16T07:10:42;13.60;99.90
61841;DHT22;47773;53.174;6.614;2022-10-16T07:13:08;13.60;99.90
61841;DHT22;47773;53.174;6.614;2022-10-16T07:15:34;13.60;99.90
61841;DHT22;47773;53.174;6.614;2022-10-16T07:17:59;13.60;99.90
61841;DHT22;47773;53.174;6.614;2022-10-16T07:20:25;13.60;99.90
61841;DHT22;47773;53.174;6.614;2022-10-16T07:22:51;13.60;99.90
61841;DHT22;47773;53.174;6.614;2022-10-16T07:25:17;13.60;99.90
61841;DHT22;47773;53.174;6.614;2022-10-16T07:27:43;13.60;99.90
61841;DHT22;47773;53.174;6.614;2022-10-16T07:30:09;13.60;99.90
61841;DHT22;47773;53.174;6.614;2022-10-16T07:32:35;13.60;99.90
61841;DHT22;47773;53.174;6.614;2022-10-16T07:35:00;13.60;99.90
61841;DHT22;47773;53.174;6.614;2022-10-16T07:37:26;13.60;99.90
61841;DHT22;47773;53.174;6.614;2022-10-16T07:39:51;13.60;99.90
61841;DHT22;47773;53.174;6.614;2022-10-16T07:42:17;13.60;99.90
61841;DHT22;47773;53.174;6.614;2022-10-16T07:44:43;13.60;99.90
61841;DHT22;47773;53.174;6.614;2022-10-16T07:47:09;13.60;99.90
61841;DHT22;47773;53.174;6.614;2022-10-16T07:49:34;13.60;99.90
61841;DHT22;47773;53.174;6.614;2022-10-16T07:52:00;13.60;99.90
61841;DHT22;47773;53.174;6.614;2022-10-16T07:54:25;13.60;99.90
61841;DHT22;47773;53.174;6.614;2022-10-16T07:56:51;13.70;99.90
61841;DHT22;47773;53.174;6.614;2022-10-16T07:59:17;13.80;99.90
61841;DHT22;47773;53.174;6.614;2022-10-16T08:01:42;13.80;99.90
61841;DHT22;47773;53.174;6.614;2022-10-16T08:04:09;13.90;99.90
61841;DHT22;47773;53.174;6.614;2022-10-16T08:06:37;14.00;99.90
61841;DHT22;47773;53.174;6.614;2022-10-16T08:09:04;14.00;99.90
61841;DHT22;47773;53.174;6.614;2022-10-16T08:11:29;14.10;99.90
61841;DHT22;47773;53.174;6.614;2022-10-16T08:13:55;14.10;99.90
61841;DHT22;47773;53.174;6.614;2022-10-16T08:16:21;14.20;99.90
61841;DHT22;47773;53.174;6.614;2022-10-16T08:18:46;14.10;99.90
61841;DHT22;47773;53.174;6.614;2022-10-16T08:21:14;14.10;99.90
61841;DHT22;47773;53.174;6.614;2022-10-16T08:23:40;14.10;99.90
61841;DHT22;47773;53.174;6.614;2022-10-16T08:26:07;14.20;99.90
61841;DHT22;47773;53.174;6.614;2022-10-16T08:28:33;14.20;99.90
61841;DHT22;47773;53.174;6.614;2022-10-16T08:31:15;14.20;99.90
61841;DHT22;47773;53.174;6.614;2022-10-16T08:33:43;14.20;99.90
61841;DHT22;47773;53.174;6.614;2022-10-16T08:36:10;14.20;99.90
61841;DHT22;47773;53.174;6.614;2022-10-16T08:38:36;14.30;99.90
61841;DHT22;47773;53.174;6.614;2022-10-16T08:44:04;14.30;99.90
61841;DHT22;47773;53.174;6.614;2022-10-16T08:49:37;14.40;99.90
61841;DHT22;47773;53.174;6.614;2022-10-16T08:52:11;14.50;99.90
61841;DHT22;47773;53.174;6.614;2022-10-16T08:54:42;14.50;99.90
61841;DHT22;47773;53.174;6.614;2022-10-16T08:57:19;14.60;99.90
61841;DHT22;47773;53.174;6.614;2022-10-16T08:59:45;14.60;99.90
61841;DHT22;47773;53.174;6.614;2022-10-16T09:08:14;14.90;99.90
61841;DHT22;47773;53.174;6.614;2022-10-16T09:11:01;14.90;99.90
61841;DHT22;47773;53.174;6.614;2022-10-16T09:13:48;15.00;99.90
61841;DHT22;47773;53.174;6.614;2022-10-16T09:16:39;15.10;99.90
61841;DHT22;47773;53.174;6.614;2022-10-16T09:19:29;15.20;99.90
61841;DHT22;47773;53.174;6.614;2022-10-16T09:21:57;15.30;99.90
61841;DHT22;47773;53.174;6.614;2022-10-16T09:24:25;15.30;99.90
61841;DHT22;47773;53.174;6.614;2022-10-16T09:26:52;15.30;99.90
61841;DHT22;47773;53.174;6.614;2022-10-16T09:29:19;15.40;99.90
61841;DHT22;47773;53.174;6.614;2022-10-16T09:31:46;15.50;99.90
61841;DHT22;47773;53.174;6.614;2022-10-16T09:36:46;15.70;99.90
61841;DHT22;47773;53.174;6.614;2022-10-16T09:39:12;15.80;99.90
61841;DHT22;47773;53.174;6.614;2022-10-16T09:41:41;15.90;99.90
61841;DHT22;47773;53.174;6.614;2022-10-16T09:44:24;15.90;99.90
61841;DHT22;47773;53.174;6.614;2022-10-16T09:47:11;15.80;99.90
61841;DHT22;47773;53.174;6.614;2022-10-16T09:49:37;15.70;99.90
61841;DHT22;47773;53.174;6.614;2022-10-16T09:52:05;15.70;99.90
61841;DHT22;47773;53.174;6.614;2022-10-16T09:54:31;15.80;99.90
61841;DHT22;47773;53.174;6.614;2022-10-16T09:57:07;16.00;99.90
61841;DHT22;47773;53.174;6.614;2022-10-16T09:59:33;16.00;99.90
61841;DHT22;47773;53.174;6.614;2022-10-16T10:02:03;16.20;99.90
61841;DHT22;47773;53.174;6.614;2022-10-16T10:04:48;16.30;99.90
61841;DHT22;47773;53.174;6.614;2022-10-16T10:07:21;16.60;99.90
61841;DHT22;47773;53.174;6.614;2022-10-16T10:09:48;16.70;99.90
61841;DHT22;47773;53.174;6.614;2022-10-16T10:15:04;17.00;99.90
61841;DHT22;47773;53.174;6.614;2022-10-16T10:17:30;17.10;99.90
61841;DHT22;47773;53.174;6.614;2022-10-16T10:19:59;17.10;99.90
61841;DHT22;47773;53.174;6.614;2022-10-16T10:28:07;17.20;99.90
61841;DHT22;47773;53.174;6.614;2022-10-16T10:36:39;17.30;99.90
61841;DHT22;47773;53.174;6.614;2022-10-16T10:41:48;17.40;99.90
61841;DHT22;47773;53.174;6.614;2022-10-16T10:44:53;17.50;99.90
61841;DHT22;47773;53.174;6.614;2022-10-16T10:47:27;17.60;99.90
61841;DHT22;47773;53.174;6.614;2022-10-16T10:50:17;17.60;99.90
61841;DHT22;47773;53.174;6.614;2022-10-16T11:06:26;17.10;99.90
61841;DHT22;47773;53.174;6.614;2022-10-16T11:09:15;17.00;99.90
61841;DHT22;47773;53.174;6.614;2022-10-16T11:11:45;17.00;99.90
61841;DHT22;47773;53.174;6.614;2022-10-16T11:14:18;17.00;99.90
61841;DHT22;47773;53.174;6.614;2022-10-16T11:19:40;17.10;99.90
61841;DHT22;47773;53.174;6.614;2022-10-16T11:22:30;17.20;99.90
61841;DHT22;47773;53.174;6.614;2022-10-16T11:25:24;17.20;99.90
61841;DHT22;47773;53.174;6.614;2022-10-16T11:30:26;17.20;99.90
61841;DHT22;47773;53.174;6.614;2022-10-16T11:36:01;17.20;99.90
61841;DHT22;47773;53.174;6.614;2022-10-16T11:38:55;17.10;99.90
61841;DHT22;47773;53.174;6.614;2022-10-16T11:46:35;17.30;99.90
61841;DHT22;47773;53.174;6.614;2022-10-16T11:49:09;17.20;99.90
61841;DHT22;47773;53.174;6.614;2022-10-16T11:51:40;17.10;99.90
61841;DHT22;47773;53.174;6.614;2022-10-16T11:54:32;17.10;99.90
61841;DHT22;47773;53.174;6.614;2022-10-16T11:57:08;17.10;99.90
61841;DHT22;47773;53.174;6.614;2022-10-16T11:59:44;17.20;99.90
61841;DHT22;47773;53.174;6.614;2022-10-16T12:10:33;17.20;99.90
61841;DHT22;47773;53.174;6.614;2022-10-16T12:13:48;17.20;99.90
61841;DHT22;47773;53.174;6.614;2022-10-16T12:15:49;17.30;99.90
61841;DHT22;47773;53.174;6.614;2022-10-16T12:18:22;17.30;99.90
61841;DHT22;47773;53.174;6.614;2022-10-16T12:20:58;17.40;99.90
61841;DHT22;47773;53.174;6.614;2022-10-16T12:23:37;17.40;99.90
61841;DHT22;47773;53.174;6.614;2022-10-16T12:26:04;17.50;99.90
61841;DHT22;47773;53.174;6.614;2022-10-16T12:28:31;17.50;99.90
61841;DHT22;47773;53.174;6.614;2022-10-16T12:31:06;17.50;99.90
61841;DHT22;47773;53.174;6.614;2022-10-16T12:33:41;17.50;99.90
61841;DHT22;47773;53.174;6.614;2022-10-16T12:36:26;17.60;99.90
61841;DHT22;47773;53.174;6.614;2022-10-16T12:38:53;17.60;99.90
61841;DHT22;47773;53.174;6.614;2022-10-16T12:41:30;17.60;99.90
61841;DHT22;47773;53.174;6.614;2022-10-16T12:43:57;17.60;99.90
61841;DHT22;47773;53.174;6.614;2022-10-16T12:46:24;17.60;99.90
61841;DHT22;47773;53.174;6.614;2022-10-16T12:51:41;17.40;99.90
61841;DHT22;47773;53.174;6.614;2022-10-16T12:59:51;17.10;99.90
61841;DHT22;47773;53.174;6.614;2022-10-16T13:08:27;16.90;99.90
61841;DHT22;47773;53.174;6.614;2022-10-16T13:13:39;16.70;99.90
61841;DHT22;47773;53.174;6.614;2022-10-16T13:19:12;16.60;99.90
61841;DHT22;47773;53.174;6.614;2022-10-16T13:21:55;16.60;99.90
61841;DHT22;47773;53.174;6.614;2022-10-16T13:24:26;16.60;99.90
61841;DHT22;47773;53.174;6.614;2022-10-16T13:27:15;16.70;99.90
61841;DHT22;47773;53.174;6.614;2022-10-16T13:29:43;16.60;99.90
61841;DHT22;47773;53.174;6.614;2022-10-16T13:32:11;16.60;99.90
61841;DHT22;47773;53.174;6.614;2022-10-16T13:34:47;16.60;99.90
61841;DHT22;47773;53.174;6.614;2022-10-16T13:37:22;16.60;99.90
61841;DHT22;47773;53.174;6.614;2022-10-16T13:39:48;16.60;99.90
61841;DHT22;47773;53.174;6.614;2022-10-16T13:42:24;16.60;99.90
61841;DHT22;47773;53.174;6.614;2022-10-16T13:44:53;16.60;99.90
61841;DHT22;47773;53.174;6.614;2022-10-16T13:47:24;16.60;99.90
61841;DHT22;47773;53.174;6.614;2022-10-16T13:50:11;16.60;99.90
61841;DHT22;47773;53.174;6.614;2022-10-16T13:52:37;16.60;99.90
61841;DHT22;47773;53.174;6.614;2022-10-16T13:55:09;16.60;99.90
61841;DHT22;47773;53.174;6.614;2022-10-16T13:57:35;16.60;99.90
61841;DHT22;47773;53.174;6.614;2022-10-16T14:00:01;16.70;99.90
61841;DHT22;47773;53.174;6.614;2022-10-16T14:02:35;16.70;99.90
61841;DHT22;47773;53.174;6.614;2022-10-16T14:05:04;16.70;99.90
61841;DHT22;47773;53.174;6.614;2022-10-16T14:07:32;16.70;99.90
61841;DHT22;47773;53.174;6.614;2022-10-16T14:10:27;16.60;99.90
61841;DHT22;47773;53.174;6.614;2022-10-16T14:13:04;16.60;99.90
61841;DHT22;47773;53.174;6.614;2022-10-16T14:15:31;16.50;99.90
61841;DHT22;47773;53.174;6.614;2022-10-16T14:17:58;16.50;99.90
61841;DHT22;47773;53.174;6.614;2022-10-16T14:20:27;16.50;99.90
61841;DHT22;47773;53.174;6.614;2022-10-16T14:23:23;16.50;99.90
61841;DHT22;47773;53.174;6.614;2022-10-16T14:25:49;16.50;99.90
61841;DHT22;47773;53.174;6.614;2022-10-16T14:28:18;16.50;99.90
61841;DHT22;47773;53.174;6.614;2022-10-16T14:30:58;16.50;99.90
61841;DHT22;47773;53.174;6.614;2022-10-16T14:38:38;16.40;99.90
61841;DHT22;47773;53.174;6.614;2022-10-16T14:41:05;16.40;99.90
61841;DHT22;47773;53.174;6.614;2022-10-16T14:43:41;16.40;99.90
61841;DHT22;47773;53.174;6.614;2022-10-16T14:46:13;16.40;99.90
61841;DHT22;47773;53.174;6.614;2022-10-16T14:48:44;16.30;99.90
61841;DHT22;47773;53.174;6.614;2022-10-16T14:51:14;16.30;99.90
61841;DHT22;47773;53.174;6.614;2022-10-16T14:53:40;16.30;99.90
61841;DHT22;47773;53.174;6.614;2022-10-16T14:58:43;16.20;99.90
61841;DHT22;47773;53.174;6.614;2022-10-16T15:01:10;16.20;99.90
61841;DHT22;47773;53.174;6.614;2022-10-16T15:03:37;16.10;99.90
61841;DHT22;47773;53.174;6.614;2022-10-16T15:06:03;16.10;99.90
61841;DHT22;47773;53.174;6.614;2022-10-16T15:08:28;16.10;99.90
61841;DHT22;47773;53.174;6.614;2022-10-16T15:10:54;16.10;99.90
61841;DHT22;47773;53.174;6.614;2022-10-16T15:13:20;16.00;99.90
61841;DHT22;47773;53.174;6.614;2022-10-16T15:15:46;16.00;99.90
61841;DHT22;47773;53.174;6.614;2022-10-16T15:18:13;16.00;99.90
61841;DHT22;47773;53.174;6.614;2022-10-16T15:20:40;16.00;99.90
61841;DHT22;47773;53.174;6.614;2022-10-16T15:23:13;16.00;99.90
61841;DHT22;47773;53.174;6.614;2022-10-16T15:25:46;15.90;99.90
61841;DHT22;47773;53.174;6.614;2022-10-16T15:28:12;15.90;99.90
61841;DHT22;47773;53.174;6.614;2022-10-16T15:30:39;15.90;99.90
61841;DHT22;47773;53.174;6.614;2022-10-16T15:33:08;15.90;99.90
61841;DHT22;47773;53.174;6.614;2022-10-16T15:35:36;15.90;99.90
61841;DHT22;47773;53.174;6.614;2022-10-16T15:38:02;15.90;99.90
61841;DHT22;47773;53.174;6.614;2022-10-16T15:40:27;15.90;99.90
61841;DHT22;47773;53.174;6.614;2022-10-16T15:42:53;15.80;99.90
61841;DHT22;47773;53.174;6.614;2022-10-16T15:45:18;15.80;99.90
61841;DHT22;47773;53.174;6.614;2022-10-16T15:47:45;15.80;99.90
61841;DHT22;47773;53.174;6.614;2022-10-16T15:50:12;15.70;99.90
61841;DHT22;47773;53.174;6.614;2022-10-16T15:52:39;15.70;99.90
61841;DHT22;47773;53.174;6.614;2022-10-16T15:55:12;15.70;99.90
61841;DHT22;47773;53.174;6.614;2022-10-16T15:57:37;15.70;99.90
61841;DHT22;47773;53.174;6.614;2022-10-16T16:00:07;15.70;99.90
61841;DHT22;47773;53.174;6.614;2022-10-16T16:02:34;15.60;99.90
61841;DHT22;47773;53.174;6.614;2022-10-16T16:05:00;15.60;99.90
61841;DHT22;47773;53.174;6.614;2022-10-16T16:07:26;15.60;99.90
61841;DHT22;47773;53.174;6.614;2022-10-16T16:09:53;15.60;99.90
61841;DHT22;47773;53.174;6.614;2022-10-16T16:12:19;15.50;99.90
61841;DHT22;47773;53.174;6.614;2022-10-16T16:14:44;15.50;99.90
61841;DHT22;47773;53.174;6.614;2022-10-16T16:17:11;15.50;99.90
61841;DHT22;47773;53.174;6.614;2022-10-16T16:19:37;15.40;99.90
61841;DHT22;47773;53.174;6.614;2022-10-16T16:22:02;15.40;99.90
61841;DHT22;47773;53.174;6.614;2022-10-16T16:24:28;15.30;99.90
61841;DHT22;47773;53.174;6.614;2022-10-16T16:26:54;15.30;99.90
61841;DHT22;47773;53.174;6.614;2022-10-16T16:29:19;15.20;99.90
61841;DHT22;47773;53.174;6.614;2022-10-16T16:31:45;15.20;99.90
61841;DHT22;47773;53.174;6.614;2022-10-16T16:34:12;15.10;99.90
61841;DHT22;47773;53.174;6.614;2022-10-16T16:36:38;15.00;99.90
61841;DHT22;47773;53.174;6.614;2022-10-16T16:39:06;15.00;99.90
61841;DHT22;47773;53.174;6.614;2022-10-16T16:41:33;14.90;99.90
61841;DHT22;47773;53.174;6.614;2022-10-16T16:44:06;14.90;99.90
61841;DHT22;47773;53.174;6.614;2022-10-16T16:46:33;14.80;99.90
61841;DHT22;47773;53.174;6.614;2022-10-16T16:49:00;14.70;99.90
61841;DHT22;47773;53.174;6.614;2022-10-16T16:51:26;14.70;99.90
61841;DHT22;47773;53.174;6.614;2022-10-16T16:53:53;14.60;99.90
61841;DHT22;47773;53.174;6.614;2022-10-16T16:56:21;14.60;99.90
61841;DHT22;47773;53.174;6.614;2022-10-16T16:58:48;14.60;99.90
61841;DHT22;47773;53.174;6.614;2022-10-16T17:01:14;14.50;99.90
61841;DHT22;47773;53.174;6.614;2022-10-16T17:03:42;14.50;99.90
61841;DHT22;47773;53.174;6.614;2022-10-16T17:06:12;14.50;99.90
61841;DHT22;47773;53.174;6.614;2022-10-16T17:08:38;14.40;99.90
61841;DHT22;47773;53.174;6.614;2022-10-16T17:11:05;14.40;99.90
61841;DHT22;47773;53.174;6.614;2022-10-16T17:13:32;14.30;99.90
61841;DHT22;47773;53.174;6.614;2022-10-16T17:16:04;14.30;99.90
61841;DHT22;47773;53.174;6.614;2022-10-16T17:18:30;14.20;99.90
61841;DHT22;47773;53.174;6.614;2022-10-16T17:20:59;14.20;99.90
61841;DHT22;47773;53.174;6.614;2022-10-16T17:23:25;14.10;99.90
61841;DHT22;47773;53.174;6.614;2022-10-16T17:25:51;14.10;99.90
61841;DHT22;47773;53.174;6.614;2022-10-16T17:28:16;14.00;99.90
61841;DHT22;47773;53.174;6.614;2022-10-16T17:30:42;14.00;99.90
61841;DHT22;47773;53.174;6.614;2022-10-16T17:33:10;14.00;99.90
61841;DHT22;47773;53.174;6.614;2022-10-16T17:35:41;13.90;99.90
61841;DHT22;47773;53.174;6.614;2022-10-16T17:38:07;13.90;99.90